sensor_id;sensor_type;location;lat;lon;timestamp;P1;durP1;ratioP1;P2;durP2;ratioP2
74044;SDS011;62389;51.412;5.436;2023-04-03T00:01:53;10.20;;;5.90;;
74044;SDS011;62389;51.412;5.436;2023-04-03T00:04:18;8.52;;;5.97;;
74044;SDS011;62389;51.412;5.436;2023-04-03T00:06:43;7.70;;;5.75;;
74044;SDS011;62389;51.412;5.436;2023-04-03T00:09:09;8.10;;;5.30;;
74044;SDS011;62389;51.412;5.436;2023-04-03T00:11:34;8.75;;;5.82;;
74044;SDS011;62389;51.412;5.436;2023-04-03T00:14:00;12.52;;;6.43;;
74044;SDS011;62389;51.412;5.436;2023-04-03T00:16:25;7.65;;;5.40;;
74044;SDS011;62389;51.412;5.436;2023-04-03T00:18:50;9.30;;;5.45;;
74044;SDS011;62389;51.412;5.436;2023-04-03T00:21:16;7.03;;;5.13;;
74044;SDS011;62389;51.412;5.436;2023-04-03T00:23:41;7.95;;;5.53;;
74044;SDS011;62389;51.412;5.436;2023-04-03T00:26:07;7.03;;;5.88;;
74044;SDS011;62389;51.412;5.436;2023-04-03T00:28:32;8.60;;;5.65;;
74044;SDS011;62389;51.412;5.436;2023-04-03T00:30:58;8.75;;;5.65;;
74044;SDS011;62389;51.412;5.436;2023-04-03T00:33:23;7.72;;;6.10;;
74044;SDS011;62389;51.412;5.436;2023-04-03T00:35:49;7.68;;;5.30;;
74044;SDS011;62389;51.412;5.436;2023-04-03T00:38:15;5.47;;;4.95;;
74044;SDS011;62389;51.412;5.436;2023-04-03T00:40:42;6.10;;;4.88;;
74044;SDS011;62389;51.412;5.436;2023-04-03T00:43:10;9.27;;;5.50;;
74044;SDS011;62389;51.412;5.436;2023-04-03T00:45:39;7.35;;;5.35;;
74044;SDS011;62389;51.412;5.436;2023-04-03T00:48:07;6.90;;;5.35;;
74044;SDS011;62389;51.412;5.436;2023-04-03T00:50:35;7.13;;;5.30;;
74044;SDS011;62389;51.412;5.436;2023-04-03T00:53:03;10.38;;;5.07;;
74044;SDS011;62389;51.412;5.436;2023-04-03T00:55:31;7.60;;;5.47;;
74044;SDS011;62389;51.412;5.436;2023-04-03T00:57:57;5.93;;;4.93;;
74044;SDS011;62389;51.412;5.436;2023-04-03T01:00:25;8.48;;;5.85;;
74044;SDS011;62389;51.412;5.436;2023-04-03T01:02:51;10.20;;;5.15;;
74044;SDS011;62389;51.412;5.436;2023-04-03T01:05:17;6.07;;;3.90;;
74044;SDS011;62389;51.412;5.436;2023-04-03T01:07:45;9.40;;;6.13;;
74044;SDS011;62389;51.412;5.436;2023-04-03T01:10:12;6.75;;;5.45;;
74044;SDS011;62389;51.412;5.436;2023-04-03T01:12:41;8.43;;;5.20;;
74044;SDS011;62389;51.412;5.436;2023-04-03T01:15:09;8.85;;;6.45;;
74044;SDS011;62389;51.412;5.436;2023-04-03T01:17:51;7.65;;;5.57;;
74044;SDS011;62389;51.412;5.436;2023-04-03T01:25:43;7.55;;;5.15;;
74044;SDS011;62389;51.412;5.436;2023-04-03T01:28:22;8.95;;;4.50;;
74044;SDS011;62389;51.412;5.436;2023-04-03T01:33:20;8.23;;;5.57;;
74044;SDS011;62389;51.412;5.436;2023-04-03T01:35:46;9.32;;;5.55;;
74044;SDS011;62389;51.412;5.436;2023-04-03T01:38:11;8.20;;;5.60;;
74044;SDS011;62389;51.412;5.436;2023-04-03T01:40:36;7.75;;;5.72;;
74044;SDS011;62389;51.412;5.436;2023-04-03T01:43:03;10.57;;;5.82;;
74044;SDS011;62389;51.412;5.436;2023-04-03T01:45:28;9.15;;;5.72;;
74044;SDS011;62389;51.412;5.436;2023-04-03T01:47:53;8.70;;;6.65;;
74044;SDS011;62389;51.412;5.436;2023-04-03T01:50:19;7.50;;;5.85;;
74044;SDS011;62389;51.412;5.436;2023-04-03T01:52:44;8.73;;;5.63;;
74044;SDS011;62389;51.412;5.436;2023-04-03T01:55:10;8.10;;;5.55;;
74044;SDS011;62389;51.412;5.436;2023-04-03T01:57:35;7.38;;;5.47;;
74044;SDS011;62389;51.412;5.436;2023-04-03T02:00:01;8.27;;;5.60;;
74044;SDS011;62389;51.412;5.436;2023-04-03T02:02:29;6.32;;;5.68;;
74044;SDS011;62389;51.412;5.436;2023-04-03T02:04:55;9.68;;;6.30;;
74044;SDS011;62389;51.412;5.436;2023-04-03T02:07:20;8.15;;;5.57;;
74044;SDS011;62389;51.412;5.436;2023-04-03T02:09:48;11.07;;;6.60;;
74044;SDS011;62389;51.412;5.436;2023-04-03T02:12:13;9.80;;;6.10;;
74044;SDS011;62389;51.412;5.436;2023-04-03T02:14:39;7.57;;;5.50;;
74044;SDS011;62389;51.412;5.436;2023-04-03T02:17:04;7.07;;;5.97;;
74044;SDS011;62389;51.412;5.436;2023-04-03T02:19:33;10.38;;;6.82;;
74044;SDS011;62389;51.412;5.436;2023-04-03T02:22:05;9.00;;;6.70;;
74044;SDS011;62389;51.412;5.436;2023-04-03T02:24:30;7.55;;;5.32;;
74044;SDS011;62389;51.412;5.436;2023-04-03T02:26:57;10.43;;;7.00;;
74044;SDS011;62389;51.412;5.436;2023-04-03T02:29:23;8.75;;;6.38;;
74044;SDS011;62389;51.412;5.436;2023-04-03T02:31:49;9.13;;;6.25;;
74044;SDS011;62389;51.412;5.436;2023-04-03T02:34:15;8.32;;;6.53;;
74044;SDS011;62389;51.412;5.436;2023-04-03T02:36:40;10.57;;;6.95;;
74044;SDS011;62389;51.412;5.436;2023-04-03T02:39:06;9.82;;;6.40;;
74044;SDS011;62389;51.412;5.436;2023-04-03T02:41:31;7.10;;;5.88;;
74044;SDS011;62389;51.412;5.436;2023-04-03T02:44:03;8.73;;;5.72;;
74044;SDS011;62389;51.412;5.436;2023-04-03T02:46:34;7.55;;;5.43;;
74044;SDS011;62389;51.412;5.436;2023-04-03T02:48:59;7.93;;;5.78;;
74044;SDS011;62389;51.412;5.436;2023-04-03T02:51:24;10.23;;;5.85;;
74044;SDS011;62389;51.412;5.436;2023-04-03T02:53:50;8.48;;;5.70;;
74044;SDS011;62389;51.412;5.436;2023-04-03T02:56:16;11.02;;;6.28;;
74044;SDS011;62389;51.412;5.436;2023-04-03T02:58:43;6.13;;;5.47;;
74044;SDS011;62389;51.412;5.436;2023-04-03T03:01:09;8.73;;;5.28;;
74044;SDS011;62389;51.412;5.436;2023-04-03T03:03:35;9.75;;;5.25;;
74044;SDS011;62389;51.412;5.436;2023-04-03T03:06:04;8.68;;;6.05;;
74044;SDS011;62389;51.412;5.436;2023-04-03T03:08:31;8.40;;;6.05;;
74044;SDS011;62389;51.412;5.436;2023-04-03T03:10:56;8.05;;;5.50;;
74044;SDS011;62389;51.412;5.436;2023-04-03T03:13:22;8.50;;;5.75;;
74044;SDS011;62389;51.412;5.436;2023-04-03T03:15:48;7.60;;;6.82;;
74044;SDS011;62389;51.412;5.436;2023-04-03T03:18:13;7.97;;;5.32;;
74044;SDS011;62389;51.412;5.436;2023-04-03T03:20:38;8.02;;;5.25;;
74044;SDS011;62389;51.412;5.436;2023-04-03T03:23:04;7.32;;;6.43;;
74044;SDS011;62389;51.412;5.436;2023-04-03T03:25:29;8.13;;;5.43;;
74044;SDS011;62389;51.412;5.436;2023-04-03T03:27:55;6.85;;;5.18;;
74044;SDS011;62389;51.412;5.436;2023-04-03T03:30:20;7.95;;;5.45;;
74044;SDS011;62389;51.412;5.436;2023-04-03T03:32:46;7.65;;;5.53;;
74044;SDS011;62389;51.412;5.436;2023-04-03T03:35:11;9.30;;;5.53;;
74044;SDS011;62389;51.412;5.436;2023-04-03T03:37:37;7.32;;;5.45;;
74044;SDS011;62389;51.412;5.436;2023-04-03T03:40:02;6.93;;;5.43;;
74044;SDS011;62389;51.412;5.436;2023-04-03T03:42:28;9.95;;;5.10;;
74044;SDS011;62389;51.412;5.436;2023-04-03T03:44:53;7.55;;;4.03;;
74044;SDS011;62389;51.412;5.436;2023-04-03T03:47:19;7.45;;;5.65;;
74044;SDS011;62389;51.412;5.436;2023-04-03T03:49:45;8.48;;;5.85;;
74044;SDS011;62389;51.412;5.436;2023-04-03T03:52:10;8.50;;;5.43;;
74044;SDS011;62389;51.412;5.436;2023-04-03T03:54:36;10.30;;;5.80;;
74044;SDS011;62389;51.412;5.436;2023-04-03T03:57:02;8.23;;;5.60;;
74044;SDS011;62389;51.412;5.436;2023-04-03T03:59:28;6.35;;;5.35;;
74044;SDS011;62389;51.412;5.436;2023-04-03T04:01:53;7.53;;;4.43;;
74044;SDS011;62389;51.412;5.436;2023-04-03T04:04:19;7.68;;;5.05;;
74044;SDS011;62389;51.412;5.436;2023-04-03T04:06:44;8.13;;;4.82;;
74044;SDS011;62389;51.412;5.436;2023-04-03T04:09:10;9.27;;;5.30;;
74044;SDS011;62389;51.412;5.436;2023-04-03T04:11:35;6.43;;;4.90;;
74044;SDS011;62389;51.412;5.436;2023-04-03T04:14:01;6.85;;;4.80;;
74044;SDS011;62389;51.412;5.436;2023-04-03T04:16:26;9.23;;;5.55;;
74044;SDS011;62389;51.412;5.436;2023-04-03T04:18:51;7.63;;;5.07;;
74044;SDS011;62389;51.412;5.436;2023-04-03T04:21:17;7.35;;;5.18;;
74044;SDS011;62389;51.412;5.436;2023-04-03T04:23:42;8.38;;;5.25;;
74044;SDS011;62389;51.412;5.436;2023-04-03T04:26:08;6.30;;;4.47;;
74044;SDS011;62389;51.412;5.436;2023-04-03T04:28:33;7.00;;;4.38;;
74044;SDS011;62389;51.412;5.436;2023-04-03T04:30:59;7.32;;;5.03;;
74044;SDS011;62389;51.412;5.436;2023-04-03T04:33:24;8.52;;;4.30;;
74044;SDS011;62389;51.412;5.436;2023-04-03T04:35:50;8.05;;;4.32;;
74044;SDS011;62389;51.412;5.436;2023-04-03T04:38:16;5.70;;;4.13;;
74044;SDS011;62389;51.412;5.436;2023-04-03T04:40:42;5.38;;;3.33;;
74044;SDS011;62389;51.412;5.436;2023-04-03T04:43:07;8.55;;;4.45;;
74044;SDS011;62389;51.412;5.436;2023-04-03T04:45:32;5.03;;;4.40;;
74044;SDS011;62389;51.412;5.436;2023-04-03T04:47:58;6.53;;;3.80;;
74044;SDS011;62389;51.412;5.436;2023-04-03T04:50:23;6.57;;;4.22;;
74044;SDS011;62389;51.412;5.436;2023-04-03T04:52:49;10.00;;;5.55;;
74044;SDS011;62389;51.412;5.436;2023-04-03T04:55:14;6.00;;;3.60;;
74044;SDS011;62389;51.412;5.436;2023-04-03T04:57:40;4.43;;;3.28;;
74044;SDS011;62389;51.412;5.436;2023-04-03T05:00:07;6.35;;;4.20;;
74044;SDS011;62389;51.412;5.436;2023-04-03T05:04:58;7.57;;;4.07;;
74044;SDS011;62389;51.412;5.436;2023-04-03T05:07:23;4.40;;;3.95;;
74044;SDS011;62389;51.412;5.436;2023-04-03T05:09:49;6.57;;;3.50;;
74044;SDS011;62389;51.412;5.436;2023-04-03T05:12:14;7.55;;;3.70;;
74044;SDS011;62389;51.412;5.436;2023-04-03T05:14:40;4.40;;;3.20;;
74044;SDS011;62389;51.412;5.436;2023-04-03T05:17:05;4.72;;;3.22;;
74044;SDS011;62389;51.412;5.436;2023-04-03T05:19:30;7.38;;;3.40;;
74044;SDS011;62389;51.412;5.436;2023-04-03T05:21:56;7.55;;;3.25;;
74044;SDS011;62389;51.412;5.436;2023-04-03T05:24:21;5.25;;;3.22;;
74044;SDS011;62389;51.412;5.436;2023-04-03T05:26:47;6.50;;;3.70;;
74044;SDS011;62389;51.412;5.436;2023-04-03T05:29:12;4.18;;;3.78;;
74044;SDS011;62389;51.412;5.436;2023-04-03T05:31:37;4.15;;;3.05;;
74044;SDS011;62389;51.412;5.436;2023-04-03T05:34:03;5.65;;;3.75;;
74044;SDS011;62389;51.412;5.436;2023-04-03T05:36:28;4.63;;;3.13;;
74044;SDS011;62389;51.412;5.436;2023-04-03T05:38:53;4.82;;;3.38;;
74044;SDS011;62389;51.412;5.436;2023-04-03T05:41:21;4.28;;;3.35;;
74044;SDS011;62389;51.412;5.436;2023-04-03T05:43:47;4.57;;;3.10;;
74044;SDS011;62389;51.412;5.436;2023-04-03T05:46:13;6.13;;;3.17;;
74044;SDS011;62389;51.412;5.436;2023-04-03T05:48:40;6.93;;;3.35;;
74044;SDS011;62389;51.412;5.436;2023-04-03T05:51:06;5.65;;;3.35;;
74044;SDS011;62389;51.412;5.436;2023-04-03T05:53:33;6.07;;;3.40;;
74044;SDS011;62389;51.412;5.436;2023-04-03T05:56:02;4.57;;;3.00;;
74044;SDS011;62389;51.412;5.436;2023-04-03T05:58:28;4.32;;;3.15;;
74044;SDS011;62389;51.412;5.436;2023-04-03T06:00:53;5.13;;;3.47;;
74044;SDS011;62389;51.412;5.436;2023-04-03T06:03:19;4.68;;;2.63;;
74044;SDS011;62389;51.412;5.436;2023-04-03T06:05:44;5.30;;;3.03;;
74044;SDS011;62389;51.412;5.436;2023-04-03T06:08:11;5.35;;;3.17;;
74044;SDS011;62389;51.412;5.436;2023-04-03T06:10:37;4.15;;;3.17;;
74044;SDS011;62389;51.412;5.436;2023-04-03T06:13:03;4.30;;;2.33;;
74044;SDS011;62389;51.412;5.436;2023-04-03T06:15:28;4.57;;;2.80;;
74044;SDS011;62389;51.412;5.436;2023-04-03T06:17:54;4.60;;;3.20;;
74044;SDS011;62389;51.412;5.436;2023-04-03T06:20:20;7.15;;;3.13;;
74044;SDS011;62389;51.412;5.436;2023-04-03T06:22:45;6.53;;;3.40;;
74044;SDS011;62389;51.412;5.436;2023-04-03T06:25:11;3.97;;;2.58;;
74044;SDS011;62389;51.412;5.436;2023-04-03T06:27:37;7.18;;;3.00;;
74044;SDS011;62389;51.412;5.436;2023-04-03T06:30:02;3.55;;;2.97;;
74044;SDS011;62389;51.412;5.436;2023-04-03T06:32:28;4.22;;;2.60;;
74044;SDS011;62389;51.412;5.436;2023-04-03T06:34:53;3.85;;;2.92;;
74044;SDS011;62389;51.412;5.436;2023-04-03T06:37:20;7.28;;;3.38;;
74044;SDS011;62389;51.412;5.436;2023-04-03T06:39:46;4.75;;;2.72;;
74044;SDS011;62389;51.412;5.436;2023-04-03T06:42:12;4.63;;;3.20;;
74044;SDS011;62389;51.412;5.436;2023-04-03T06:44:38;4.75;;;2.63;;
74044;SDS011;62389;51.412;5.436;2023-04-03T06:47:03;5.25;;;2.53;;
74044;SDS011;62389;51.412;5.436;2023-04-03T06:49:29;5.32;;;2.10;;
74044;SDS011;62389;51.412;5.436;2023-04-03T06:51:54;5.38;;;2.60;;
74044;SDS011;62389;51.412;5.436;2023-04-03T06:54:21;6.47;;;2.30;;
74044;SDS011;62389;51.412;5.436;2023-04-03T06:56:46;4.95;;;2.05;;
74044;SDS011;62389;51.412;5.436;2023-04-03T06:59:12;4.43;;;2.63;;
74044;SDS011;62389;51.412;5.436;2023-04-03T07:01:40;3.42;;;2.10;;
74044;SDS011;62389;51.412;5.436;2023-04-03T07:04:06;4.90;;;2.28;;
74044;SDS011;62389;51.412;5.436;2023-04-03T07:06:32;3.85;;;2.40;;
74044;SDS011;62389;51.412;5.436;2023-04-03T07:08:58;3.60;;;2.42;;
74044;SDS011;62389;51.412;5.436;2023-04-03T07:11:24;3.85;;;2.40;;
74044;SDS011;62389;51.412;5.436;2023-04-03T07:13:51;4.90;;;2.17;;
74044;SDS011;62389;51.412;5.436;2023-04-03T07:16:16;4.13;;;2.55;;
74044;SDS011;62389;51.412;5.436;2023-04-03T07:18:42;5.03;;;2.78;;
74044;SDS011;62389;51.412;5.436;2023-04-03T07:21:07;3.42;;;1.90;;
74044;SDS011;62389;51.412;5.436;2023-04-03T07:23:33;6.90;;;2.67;;
74044;SDS011;62389;51.412;5.436;2023-04-03T07:25:58;4.20;;;2.17;;
74044;SDS011;62389;51.412;5.436;2023-04-03T07:28:24;3.88;;;2.25;;
74044;SDS011;62389;51.412;5.436;2023-04-03T07:30:54;5.82;;;2.33;;
74044;SDS011;62389;51.412;5.436;2023-04-03T07:33:25;5.10;;;2.55;;
74044;SDS011;62389;51.412;5.436;2023-04-03T07:35:51;4.05;;;2.22;;
74044;SDS011;62389;51.412;5.436;2023-04-03T07:38:16;6.90;;;2.35;;
74044;SDS011;62389;51.412;5.436;2023-04-03T07:40:46;4.68;;;1.52;;
74044;SDS011;62389;51.412;5.436;2023-04-03T07:43:12;4.80;;;2.08;;
74044;SDS011;62389;51.412;5.436;2023-04-03T07:45:38;4.95;;;2.47;;
74044;SDS011;62389;51.412;5.436;2023-04-03T07:48:04;4.63;;;2.42;;
74044;SDS011;62389;51.412;5.436;2023-04-03T07:50:29;4.18;;;2.00;;
74044;SDS011;62389;51.412;5.436;2023-04-03T07:52:56;3.28;;;1.85;;
74044;SDS011;62389;51.412;5.436;2023-04-03T07:55:22;3.33;;;1.83;;
74044;SDS011;62389;51.412;5.436;2023-04-03T07:57:48;4.68;;;1.98;;
74044;SDS011;62389;51.412;5.436;2023-04-03T08:00:13;3.45;;;1.88;;
74044;SDS011;62389;51.412;5.436;2023-04-03T08:02:39;4.50;;;2.00;;
74044;SDS011;62389;51.412;5.436;2023-04-03T08:05:04;5.55;;;1.75;;
74044;SDS011;62389;51.412;5.436;2023-04-03T08:07:30;3.20;;;1.92;;
74044;SDS011;62389;51.412;5.436;2023-04-03T08:09:55;2.83;;;1.83;;
74044;SDS011;62389;51.412;5.436;2023-04-03T08:12:22;2.78;;;1.73;;
74044;SDS011;62389;51.412;5.436;2023-04-03T08:14:47;4.13;;;1.63;;
74044;SDS011;62389;51.412;5.436;2023-04-03T08:17:12;2.97;;;1.45;;
74044;SDS011;62389;51.412;5.436;2023-04-03T08:19:38;3.15;;;1.02;;
74044;SDS011;62389;51.412;5.436;2023-04-03T08:22:04;6.70;;;1.30;;
74044;SDS011;62389;51.412;5.436;2023-04-03T08:24:30;2.33;;;1.10;;
74044;SDS011;62389;51.412;5.436;2023-04-03T08:26:56;3.47;;;1.00;;
74044;SDS011;62389;51.412;5.436;2023-04-03T08:29:22;3.65;;;1.30;;
74044;SDS011;62389;51.412;5.436;2023-04-03T08:31:48;4.20;;;1.40;;
74044;SDS011;62389;51.412;5.436;2023-04-03T08:34:15;3.63;;;1.27;;
74044;SDS011;62389;51.412;5.436;2023-04-03T08:36:41;4.35;;;1.30;;
74044;SDS011;62389;51.412;5.436;2023-04-03T08:39:06;1.90;;;1.10;;
74044;SDS011;62389;51.412;5.436;2023-04-03T08:41:37;2.30;;;1.20;;
74044;SDS011;62389;51.412;5.436;2023-04-03T08:49:55;2.50;;;0.95;;
74044;SDS011;62389;51.412;5.436;2023-04-03T08:57:48;5.28;;;1.33;;
74044;SDS011;62389;51.412;5.436;2023-04-03T09:00:22;4.75;;;1.10;;
74044;SDS011;62389;51.412;5.436;2023-04-03T09:02:50;2.78;;;1.50;;
74044;SDS011;62389;51.412;5.436;2023-04-03T09:05:24;2.50;;;1.00;;
74044;SDS011;62389;51.412;5.436;2023-04-03T09:07:57;2.50;;;1.02;;
74044;SDS011;62389;51.412;5.436;2023-04-03T09:10:32;2.47;;;1.25;;
74044;SDS011;62389;51.412;5.436;2023-04-03T09:13:04;1.92;;;0.88;;
74044;SDS011;62389;51.412;5.436;2023-04-03T09:15:37;2.45;;;0.90;;
74044;SDS011;62389;51.412;5.436;2023-04-03T09:18:09;2.83;;;1.02;;
74044;SDS011;62389;51.412;5.436;2023-04-03T09:25:56;2.03;;;0.70;;
74044;SDS011;62389;51.412;5.436;2023-04-03T09:28:26;1.90;;;0.80;;
74044;SDS011;62389;51.412;5.436;2023-04-03T09:30:54;2.08;;;0.75;;
74044;SDS011;62389;51.412;5.436;2023-04-03T09:33:20;1.50;;;0.60;;
74044;SDS011;62389;51.412;5.436;2023-04-03T09:35:46;1.27;;;0.63;;
74044;SDS011;62389;51.412;5.436;2023-04-03T09:40:40;1.48;;;0.60;;
74044;SDS011;62389;51.412;5.436;2023-04-03T09:45:41;2.45;;;0.80;;
74044;SDS011;62389;51.412;5.436;2023-04-03T09:50:52;2.78;;;1.00;;
74044;SDS011;62389;51.412;5.436;2023-04-03T09:53:26;2.35;;;0.82;;
74044;SDS011;62389;51.412;5.436;2023-04-03T09:55:54;2.30;;;0.80;;
74044;SDS011;62389;51.412;5.436;2023-04-03T09:58:27;2.80;;;1.10;;
74044;SDS011;62389;51.412;5.436;2023-04-03T10:00:54;1.45;;;0.77;;
74044;SDS011;62389;51.412;5.436;2023-04-03T10:03:29;2.83;;;0.93;;
74044;SDS011;62389;51.412;5.436;2023-04-03T10:06:02;1.50;;;0.70;;
74044;SDS011;62389;51.412;5.436;2023-04-03T10:11:16;1.20;;;0.43;;
74044;SDS011;62389;51.412;5.436;2023-04-03T10:13:51;1.70;;;0.90;;
74044;SDS011;62389;51.412;5.436;2023-04-03T10:16:23;2.78;;;0.80;;
74044;SDS011;62389;51.412;5.436;2023-04-03T10:19:13;2.50;;;1.00;;
74044;SDS011;62389;51.412;5.436;2023-04-03T10:21:59;1.88;;;0.80;;
74044;SDS011;62389;51.412;5.436;2023-04-03T10:25:32;1.13;;;0.73;;
74044;SDS011;62389;51.412;5.436;2023-04-03T10:35:42;2.30;;;1.00;;
74044;SDS011;62389;51.412;5.436;2023-04-03T10:41:39;3.42;;;1.23;;
74044;SDS011;62389;51.412;5.436;2023-04-03T10:46:52;1.50;;;0.95;;
74044;SDS011;62389;51.412;5.436;2023-04-03T10:57:39;1.65;;;0.77;;
74044;SDS011;62389;51.412;5.436;2023-04-03T11:00:07;2.22;;;1.30;;
74044;SDS011;62389;51.412;5.436;2023-04-03T11:02:55;3.47;;;1.00;;
74044;SDS011;62389;51.412;5.436;2023-04-03T11:10:44;1.58;;;0.60;;
74044;SDS011;62389;51.412;5.436;2023-04-03T11:15:38;1.42;;;0.75;;
74044;SDS011;62389;51.412;5.436;2023-04-03T11:18:11;2.75;;;1.10;;
74044;SDS011;62389;51.412;5.436;2023-04-03T11:20:43;0.85;;;0.80;;
74044;SDS011;62389;51.412;5.436;2023-04-03T11:23:17;1.20;;;0.80;;
74044;SDS011;62389;51.412;5.436;2023-04-03T11:25:51;2.63;;;1.00;;
74044;SDS011;62389;51.412;5.436;2023-04-03T11:28:19;2.45;;;0.93;;
74044;SDS011;62389;51.412;5.436;2023-04-03T11:30:49;5.75;;;1.00;;
74044;SDS011;62389;51.412;5.436;2023-04-03T11:36:23;1.70;;;0.93;;
74044;SDS011;62389;51.412;5.436;2023-04-03T11:38:55;1.52;;;0.70;;
74044;SDS011;62389;51.412;5.436;2023-04-03T11:41:26;1.80;;;0.95;;
74044;SDS011;62389;51.412;5.436;2023-04-03T11:43:58;1.63;;;0.90;;
74044;SDS011;62389;51.412;5.436;2023-04-03T11:55:35;1.52;;;1.02;;
74044;SDS011;62389;51.412;5.436;2023-04-03T12:05:51;3.17;;;0.90;;
74044;SDS011;62389;51.412;5.436;2023-04-03T12:13:33;2.22;;;1.00;;
74044;SDS011;62389;51.412;5.436;2023-04-03T12:16:00;1.27;;;0.80;;
74044;SDS011;62389;51.412;5.436;2023-04-03T12:18:46;2.58;;;1.00;;
74044;SDS011;62389;51.412;5.436;2023-04-03T12:21:21;5.40;;;1.10;;
74044;SDS011;62389;51.412;5.436;2023-04-03T12:26:46;1.80;;;1.08;;
74044;SDS011;62389;51.412;5.436;2023-04-03T12:40:31;3.10;;;1.55;;
74044;SDS011;62389;51.412;5.436;2023-04-03T12:46:14;2.38;;;0.98;;
74044;SDS011;62389;51.412;5.436;2023-04-03T12:51:09;2.75;;;0.95;;
74044;SDS011;62389;51.412;5.436;2023-04-03T12:53:39;2.75;;;1.17;;
74044;SDS011;62389;51.412;5.436;2023-04-03T12:56:19;4.05;;;0.90;;
74044;SDS011;62389;51.412;5.436;2023-04-03T12:58:48;3.50;;;1.48;;
74044;SDS011;62389;51.412;5.436;2023-04-03T13:01:18;6.07;;;1.17;;
74044;SDS011;62389;51.412;5.436;2023-04-03T13:03:51;2.00;;;1.00;;
74044;SDS011;62389;51.412;5.436;2023-04-03T13:06:22;3.13;;;1.08;;
74044;SDS011;62389;51.412;5.436;2023-04-03T13:08:55;2.03;;;0.82;;
74044;SDS011;62389;51.412;5.436;2023-04-03T13:11:24;2.75;;;1.13;;
74044;SDS011;62389;51.412;5.436;2023-04-03T13:13:56;2.45;;;1.10;;
74044;SDS011;62389;51.412;5.436;2023-04-03T13:16:23;3.13;;;1.08;;
74044;SDS011;62389;51.412;5.436;2023-04-03T13:18:50;1.83;;;1.08;;
74044;SDS011;62389;51.412;5.436;2023-04-03T13:21:18;3.28;;;1.20;;
74044;SDS011;62389;51.412;5.436;2023-04-03T13:23:48;2.65;;;1.23;;
74044;SDS011;62389;51.412;5.436;2023-04-03T13:26:17;2.40;;;0.98;;
74044;SDS011;62389;51.412;5.436;2023-04-03T13:28:45;2.60;;;1.40;;
74044;SDS011;62389;51.412;5.436;2023-04-03T13:33:38;2.78;;;1.48;;
74044;SDS011;62389;51.412;5.436;2023-04-03T13:36:22;1.75;;;1.10;;
74044;SDS011;62389;51.412;5.436;2023-04-03T13:38:58;2.72;;;1.40;;
74044;SDS011;62389;51.412;5.436;2023-04-03T13:41:26;2.03;;;1.00;;
74044;SDS011;62389;51.412;5.436;2023-04-03T13:43:55;2.08;;;1.15;;
74044;SDS011;62389;51.412;5.436;2023-04-03T13:46:22;2.95;;;1.48;;
74044;SDS011;62389;51.412;5.436;2023-04-03T13:48:50;2.03;;;1.13;;
74044;SDS011;62389;51.412;5.436;2023-04-03T13:51:20;2.28;;;1.40;;
74044;SDS011;62389;51.412;5.436;2023-04-03T13:56:29;2.28;;;1.40;;
74044;SDS011;62389;51.412;5.436;2023-04-03T13:59:18;4.45;;;1.50;;
74044;SDS011;62389;51.412;5.436;2023-04-03T14:04:19;4.18;;;1.40;;
74044;SDS011;62389;51.412;5.436;2023-04-03T14:06:50;3.85;;;1.52;;
74044;SDS011;62389;51.412;5.436;2023-04-03T14:09:17;2.55;;;1.30;;
74044;SDS011;62389;51.412;5.436;2023-04-03T14:11:44;5.45;;;1.33;;
74044;SDS011;62389;51.412;5.436;2023-04-03T14:14:13;3.50;;;1.48;;
74044;SDS011;62389;51.412;5.436;2023-04-03T14:16:42;2.15;;;1.33;;
74044;SDS011;62389;51.412;5.436;2023-04-03T14:19:19;2.55;;;1.60;;
74044;SDS011;62389;51.412;5.436;2023-04-03T14:21:47;5.63;;;1.50;;
74044;SDS011;62389;51.412;5.436;2023-04-03T14:24:13;2.55;;;1.02;;
74044;SDS011;62389;51.412;5.436;2023-04-03T14:26:38;2.45;;;1.00;;
74044;SDS011;62389;51.412;5.436;2023-04-03T14:29:04;2.90;;;1.20;;
74044;SDS011;62389;51.412;5.436;2023-04-03T14:31:30;2.60;;;1.48;;
74044;SDS011;62389;51.412;5.436;2023-04-03T14:33:55;2.05;;;1.20;;
74044;SDS011;62389;51.412;5.436;2023-04-03T14:36:21;3.28;;;1.52;;
74044;SDS011;62389;51.412;5.436;2023-04-03T14:38:50;4.05;;;1.60;;
74044;SDS011;62389;51.412;5.436;2023-04-03T14:41:18;3.95;;;1.40;;
74044;SDS011;62389;51.412;5.436;2023-04-03T14:43:45;3.35;;;1.80;;
74044;SDS011;62389;51.412;5.436;2023-04-03T14:46:13;2.50;;;1.30;;
74044;SDS011;62389;51.412;5.436;2023-04-03T14:48:41;2.78;;;1.38;;
74044;SDS011;62389;51.412;5.436;2023-04-03T14:51:08;2.47;;;1.40;;
74044;SDS011;62389;51.412;5.436;2023-04-03T14:53:35;2.97;;;1.63;;
74044;SDS011;62389;51.412;5.436;2023-04-03T14:56:01;2.13;;;1.40;;
74044;SDS011;62389;51.412;5.436;2023-04-03T14:58:27;2.95;;;1.50;;
74044;SDS011;62389;51.412;5.436;2023-04-03T15:00:52;4.72;;;1.65;;
74044;SDS011;62389;51.412;5.436;2023-04-03T15:03:19;3.97;;;1.50;;
74044;SDS011;62389;51.412;5.436;2023-04-03T15:05:46;4.18;;;1.55;;
74044;SDS011;62389;51.412;5.436;2023-04-03T15:08:21;3.95;;;1.55;;
74044;SDS011;62389;51.412;5.436;2023-04-03T15:10:49;4.95;;;1.67;;
74044;SDS011;62389;51.412;5.436;2023-04-03T15:13:17;3.83;;;1.90;;
74044;SDS011;62389;51.412;5.436;2023-04-03T15:15:43;2.70;;;1.35;;
74044;SDS011;62389;51.412;5.436;2023-04-03T15:18:20;3.45;;;1.50;;
74044;SDS011;62389;51.412;5.436;2023-04-03T15:20:48;2.08;;;1.20;;
74044;SDS011;62389;51.412;5.436;2023-04-03T15:23:14;3.10;;;1.65;;
74044;SDS011;62389;51.412;5.436;2023-04-03T15:25:41;2.75;;;1.92;;
74044;SDS011;62389;51.412;5.436;2023-04-03T15:30:37;3.40;;;1.55;;
74044;SDS011;62389;51.412;5.436;2023-04-03T15:33:05;3.22;;;1.52;;
74044;SDS011;62389;51.412;5.436;2023-04-03T15:35:30;3.45;;;1.50;;
74044;SDS011;62389;51.412;5.436;2023-04-03T15:37:56;3.38;;;1.40;;
74044;SDS011;62389;51.412;5.436;2023-04-03T15:40:21;2.92;;;1.40;;
74044;SDS011;62389;51.412;5.436;2023-04-03T15:42:46;3.33;;;1.48;;
74044;SDS011;62389;51.412;5.436;2023-04-03T15:45:12;7.55;;;2.00;;
74044;SDS011;62389;51.412;5.436;2023-04-03T15:47:38;3.75;;;1.20;;
74044;SDS011;62389;51.412;5.436;2023-04-03T15:50:04;4.05;;;1.45;;
74044;SDS011;62389;51.412;5.436;2023-04-03T15:52:31;2.78;;;1.80;;
74044;SDS011;62389;51.412;5.436;2023-04-03T15:54:57;3.00;;;1.55;;
74044;SDS011;62389;51.412;5.436;2023-04-03T15:57:22;2.72;;;1.50;;
74044;SDS011;62389;51.412;5.436;2023-04-03T15:59:50;3.85;;;1.70;;
74044;SDS011;62389;51.412;5.436;2023-04-03T16:02:16;2.33;;;1.30;;
74044;SDS011;62389;51.412;5.436;2023-04-03T16:04:41;2.78;;;1.65;;
74044;SDS011;62389;51.412;5.436;2023-04-03T16:07:07;3.00;;;1.20;;
74044;SDS011;62389;51.412;5.436;2023-04-03T16:09:32;3.03;;;1.85;;
74044;SDS011;62389;51.412;5.436;2023-04-03T16:11:59;6.63;;;1.85;;
74044;SDS011;62389;51.412;5.436;2023-04-03T16:14:25;2.55;;;1.73;;
74044;SDS011;62389;51.412;5.436;2023-04-03T16:16:52;4.72;;;1.80;;
74044;SDS011;62389;51.412;5.436;2023-04-03T16:19:18;2.55;;;1.45;;
74044;SDS011;62389;51.412;5.436;2023-04-03T16:21:44;1.50;;;1.20;;
74044;SDS011;62389;51.412;5.436;2023-04-03T16:24:09;2.17;;;1.60;;
74044;SDS011;62389;51.412;5.436;2023-04-03T16:26:35;3.58;;;1.75;;
74044;SDS011;62389;51.412;5.436;2023-04-03T16:29:00;3.28;;;1.50;;
74044;SDS011;62389;51.412;5.436;2023-04-03T16:31:26;4.45;;;1.92;;
74044;SDS011;62389;51.412;5.436;2023-04-03T16:33:52;9.80;;;2.03;;
74044;SDS011;62389;51.412;5.436;2023-04-03T16:36:17;179.10;;;14.98;;
74044;SDS011;62389;51.412;5.436;2023-04-03T16:38:43;3.38;;;0.90;;
74044;SDS011;62389;51.412;5.436;2023-04-03T16:41:08;2.03;;;1.15;;
74044;SDS011;62389;51.412;5.436;2023-04-03T16:43:33;3.47;;;1.33;;
74044;SDS011;62389;51.412;5.436;2023-04-03T16:46:00;2.15;;;1.30;;
74044;SDS011;62389;51.412;5.436;2023-04-03T16:48:27;2.15;;;1.23;;
74044;SDS011;62389;51.412;5.436;2023-04-03T16:50:53;2.30;;;1.58;;
74044;SDS011;62389;51.412;5.436;2023-04-03T16:53:19;3.80;;;1.52;;